sensor_id;sensor_type;location;lat;lon;timestamp;P1;durP1;ratioP1;P2;durP2;ratioP2
52067;SDS011;60237;52.338;21.228;2022-12-18T00:01:04;75.43;;;20.67;;
52067;SDS011;60237;52.338;21.228;2022-12-18T00:03:32;61.83;;;19.00;;
52067;SDS011;60237;52.338;21.228;2022-12-18T00:05:59;77.40;;;23.80;;
52067;SDS011;60237;52.338;21.228;2022-12-18T00:08:26;69.15;;;21.00;;
52067;SDS011;60237;52.338;21.228;2022-12-18T00:10:52;80.90;;;22.20;;
52067;SDS011;60237;52.338;21.228;2022-12-18T00:13:25;69.60;;;21.23;;
52067;SDS011;60237;52.338;21.228;2022-12-18T00:15:53;68.97;;;20.20;;
52067;SDS011;60237;52.338;21.228;2022-12-18T00:18:22;73.95;;;20.80;;
52067;SDS011;60237;52.338;21.228;2022-12-18T00:20:48;90.72;;;22.48;;
52067;SDS011;60237;52.338;21.228;2022-12-18T00:23:14;82.57;;;21.23;;
52067;SDS011;60237;52.338;21.228;2022-12-18T00:25:41;91.45;;;21.08;;
52067;SDS011;60237;52.338;21.228;2022-12-18T00:28:07;69.65;;;20.10;;
52067;SDS011;60237;52.338;21.228;2022-12-18T00:30:34;63.70;;;21.05;;
52067;SDS011;60237;52.338;21.228;2022-12-18T00:33:00;70.13;;;19.55;;
52067;SDS011;60237;52.338;21.228;2022-12-18T00:35:27;67.82;;;21.80;;
52067;SDS011;60237;52.338;21.228;2022-12-18T00:37:53;71.47;;;20.77;;
52067;SDS011;60237;52.338;21.228;2022-12-18T00:40:22;86.63;;;21.83;;
52067;SDS011;60237;52.338;21.228;2022-12-18T00:42:48;85.32;;;20.92;;
52067;SDS011;60237;52.338;21.228;2022-12-18T00:45:28;82.35;;;19.67;;
52067;SDS011;60237;52.338;21.228;2022-12-18T00:47:55;66.15;;;19.20;;
52067;SDS011;60237;52.338;21.228;2022-12-18T00:50:23;62.85;;;17.77;;
52067;SDS011;60237;52.338;21.228;2022-12-18T00:52:50;85.90;;;22.15;;
52067;SDS011;60237;52.338;21.228;2022-12-18T00:55:17;102.45;;;21.92;;
52067;SDS011;60237;52.338;21.228;2022-12-18T00:57:45;64.95;;;19.30;;
52067;SDS011;60237;52.338;21.228;2022-12-18T01:00:13;74.53;;;21.35;;
52067;SDS011;60237;52.338;21.228;2022-12-18T01:02:40;72.25;;;19.80;;
52067;SDS011;60237;52.338;21.228;2022-12-18T01:05:08;72.60;;;19.70;;
52067;SDS011;60237;52.338;21.228;2022-12-18T01:07:34;79.13;;;21.10;;
52067;SDS011;60237;52.338;21.228;2022-12-18T01:10:02;63.33;;;19.60;;
52067;SDS011;60237;52.338;21.228;2022-12-18T01:12:29;66.68;;;19.63;;
52067;SDS011;60237;52.338;21.228;2022-12-18T01:14:55;70.35;;;19.42;;
52067;SDS011;60237;52.338;21.228;2022-12-18T01:17:22;84.97;;;21.23;;
52067;SDS011;60237;52.338;21.228;2022-12-18T01:19:48;81.10;;;20.77;;
52067;SDS011;60237;52.338;21.228;2022-12-18T01:22:15;90.65;;;22.80;;
52067;SDS011;60237;52.338;21.228;2022-12-18T01:24:43;73.93;;;19.75;;
52067;SDS011;60237;52.338;21.228;2022-12-18T01:27:10;71.25;;;21.48;;
52067;SDS011;60237;52.338;21.228;2022-12-18T01:29:38;85.28;;;21.95;;
52067;SDS011;60237;52.338;21.228;2022-12-18T01:32:05;69.53;;;21.65;;
52067;SDS011;60237;52.338;21.228;2022-12-18T01:34:31;70.68;;;20.73;;
52067;SDS011;60237;52.338;21.228;2022-12-18T01:36:58;81.07;;;21.45;;
52067;SDS011;60237;52.338;21.228;2022-12-18T01:39:25;62.75;;;19.35;;
52067;SDS011;60237;52.338;21.228;2022-12-18T01:41:51;64.15;;;18.67;;
52067;SDS011;60237;52.338;21.228;2022-12-18T01:47:26;84.90;;;22.35;;
52067;SDS011;60237;52.338;21.228;2022-12-18T01:49:53;65.55;;;19.65;;
52067;SDS011;60237;52.338;21.228;2022-12-18T01:52:21;76.63;;;20.15;;
52067;SDS011;60237;52.338;21.228;2022-12-18T01:54:48;91.95;;;24.23;;
52067;SDS011;60237;52.338;21.228;2022-12-18T01:57:15;84.85;;;20.83;;
52067;SDS011;60237;52.338;21.228;2022-12-18T01:59:42;75.18;;;20.90;;
52067;SDS011;60237;52.338;21.228;2022-12-18T02:02:09;69.47;;;20.25;;
52067;SDS011;60237;52.338;21.228;2022-12-18T02:04:36;79.63;;;20.80;;
52067;SDS011;60237;52.338;21.228;2022-12-18T02:09:44;81.07;;;21.60;;
52067;SDS011;60237;52.338;21.228;2022-12-18T02:12:27;77.25;;;21.40;;
52067;SDS011;60237;52.338;21.228;2022-12-18T02:15:00;84.00;;;21.92;;
52067;SDS011;60237;52.338;21.228;2022-12-18T02:17:50;68.40;;;22.15;;
52067;SDS011;60237;52.338;21.228;2022-12-18T02:20:30;81.70;;;22.80;;
52067;SDS011;60237;52.338;21.228;2022-12-18T02:25:40;95.97;;;24.40;;
52067;SDS011;60237;52.338;21.228;2022-12-18T02:28:12;86.90;;;23.77;;
52067;SDS011;60237;52.338;21.228;2022-12-18T02:30:39;81.22;;;20.88;;
52067;SDS011;60237;52.338;21.228;2022-12-18T02:33:07;69.30;;;20.98;;
52067;SDS011;60237;52.338;21.228;2022-12-18T02:35:34;64.00;;;19.23;;
52067;SDS011;60237;52.338;21.228;2022-12-18T02:38:01;77.45;;;22.63;;
52067;SDS011;60237;52.338;21.228;2022-12-18T02:40:32;72.22;;;21.35;;
52067;SDS011;60237;52.338;21.228;2022-12-18T02:43:17;70.13;;;20.83;;
52067;SDS011;60237;52.338;21.228;2022-12-18T02:45:52;71.60;;;21.25;;
52067;SDS011;60237;52.338;21.228;2022-12-18T02:48:21;71.68;;;22.15;;
52067;SDS011;60237;52.338;21.228;2022-12-18T02:53:39;70.57;;;22.38;;
52067;SDS011;60237;52.338;21.228;2022-12-18T02:56:20;63.85;;;19.65;;
52067;SDS011;60237;52.338;21.228;2022-12-18T02:59:08;73.85;;;21.35;;
52067;SDS011;60237;52.338;21.228;2022-12-18T03:04:16;72.13;;;20.30;;
52067;SDS011;60237;52.338;21.228;2022-12-18T03:06:46;76.50;;;21.10;;
52067;SDS011;60237;52.338;21.228;2022-12-18T03:09:19;74.28;;;19.38;;
52067;SDS011;60237;52.338;21.228;2022-12-18T03:11:58;78.75;;;20.77;;
52067;SDS011;60237;52.338;21.228;2022-12-18T03:14:46;81.93;;;19.45;;
52067;SDS011;60237;52.338;21.228;2022-12-18T03:17:16;82.10;;;22.67;;
52067;SDS011;60237;52.338;21.228;2022-12-18T03:19:44;92.60;;;23.13;;
52067;SDS011;60237;52.338;21.228;2022-12-18T03:22:12;87.18;;;20.98;;
52067;SDS011;60237;52.338;21.228;2022-12-18T03:24:44;67.95;;;18.55;;
52067;SDS011;60237;52.338;21.228;2022-12-18T03:27:13;57.10;;;17.42;;
52067;SDS011;60237;52.338;21.228;2022-12-18T03:29:46;62.25;;;18.75;;
52067;SDS011;60237;52.338;21.228;2022-12-18T03:32:24;60.20;;;17.92;;
52067;SDS011;60237;52.338;21.228;2022-12-18T03:34:52;74.25;;;17.88;;
52067;SDS011;60237;52.338;21.228;2022-12-18T03:37:22;73.35;;;18.27;;
52067;SDS011;60237;52.338;21.228;2022-12-18T03:39:50;60.72;;;17.33;;
52067;SDS011;60237;52.338;21.228;2022-12-18T03:42:36;66.35;;;17.15;;
52067;SDS011;60237;52.338;21.228;2022-12-18T03:45:14;47.40;;;16.55;;
52067;SDS011;60237;52.338;21.228;2022-12-18T03:47:53;60.15;;;18.35;;
52067;SDS011;60237;52.338;21.228;2022-12-18T03:53:03;55.58;;;17.30;;
52067;SDS011;60237;52.338;21.228;2022-12-18T03:55:32;55.05;;;15.32;;
52067;SDS011;60237;52.338;21.228;2022-12-18T03:58:03;71.80;;;17.17;;
52067;SDS011;60237;52.338;21.228;2022-12-18T04:00:40;64.43;;;17.23;;
52067;SDS011;60237;52.338;21.228;2022-12-18T04:03:08;78.22;;;17.50;;
52067;SDS011;60237;52.338;21.228;2022-12-18T04:05:41;62.50;;;16.52;;
52067;SDS011;60237;52.338;21.228;2022-12-18T04:08:08;55.42;;;15.23;;
52067;SDS011;60237;52.338;21.228;2022-12-18T04:10:39;77.82;;;16.83;;
52067;SDS011;60237;52.338;21.228;2022-12-18T04:13:06;46.67;;;14.52;;
52067;SDS011;60237;52.338;21.228;2022-12-18T04:15:34;45.28;;;15.23;;
52067;SDS011;60237;52.338;21.228;2022-12-18T04:18:02;58.85;;;17.90;;
52067;SDS011;60237;52.338;21.228;2022-12-18T04:20:37;51.53;;;15.18;;
52067;SDS011;60237;52.338;21.228;2022-12-18T04:23:03;64.65;;;18.15;;
52067;SDS011;60237;52.338;21.228;2022-12-18T04:25:31;55.63;;;17.60;;
52067;SDS011;60237;52.338;21.228;2022-12-18T04:28:06;51.88;;;15.50;;
52067;SDS011;60237;52.338;21.228;2022-12-18T04:30:34;62.85;;;16.10;;
52067;SDS011;60237;52.338;21.228;2022-12-18T04:33:01;59.05;;;15.38;;
52067;SDS011;60237;52.338;21.228;2022-12-18T04:35:29;59.80;;;15.65;;
52067;SDS011;60237;52.338;21.228;2022-12-18T04:37:56;61.05;;;16.25;;
52067;SDS011;60237;52.338;21.228;2022-12-18T04:40:22;72.18;;;14.88;;
52067;SDS011;60237;52.338;21.228;2022-12-18T04:42:50;58.08;;;15.32;;
52067;SDS011;60237;52.338;21.228;2022-12-18T04:45:17;72.72;;;16.30;;
52067;SDS011;60237;52.338;21.228;2022-12-18T04:47:44;54.47;;;14.70;;
52067;SDS011;60237;52.338;21.228;2022-12-18T04:50:10;64.78;;;15.98;;
52067;SDS011;60237;52.338;21.228;2022-12-18T04:52:37;61.97;;;15.45;;
52067;SDS011;60237;52.338;21.228;2022-12-18T04:55:03;61.17;;;17.08;;
52067;SDS011;60237;52.338;21.228;2022-12-18T04:57:30;55.65;;;15.30;;
52067;SDS011;60237;52.338;21.228;2022-12-18T04:59:56;49.47;;;14.00;;
52067;SDS011;60237;52.338;21.228;2022-12-18T05:02:23;47.67;;;13.88;;
52067;SDS011;60237;52.338;21.228;2022-12-18T05:04:49;61.08;;;15.80;;
52067;SDS011;60237;52.338;21.228;2022-12-18T05:07:16;86.20;;;17.65;;
52067;SDS011;60237;52.338;21.228;2022-12-18T05:09:42;50.38;;;13.18;;
52067;SDS011;60237;52.338;21.228;2022-12-18T05:12:10;49.25;;;13.48;;
52067;SDS011;60237;52.338;21.228;2022-12-18T05:14:37;61.70;;;14.35;;
52067;SDS011;60237;52.338;21.228;2022-12-18T05:17:03;62.75;;;14.35;;
52067;SDS011;60237;52.338;21.228;2022-12-18T05:19:29;54.63;;;13.25;;
52067;SDS011;60237;52.338;21.228;2022-12-18T05:21:56;40.75;;;12.50;;
52067;SDS011;60237;52.338;21.228;2022-12-18T05:24:23;55.33;;;14.05;;
52067;SDS011;60237;52.338;21.228;2022-12-18T05:26:50;67.75;;;16.15;;
52067;SDS011;60237;52.338;21.228;2022-12-18T05:29:16;52.78;;;14.00;;
52067;SDS011;60237;52.338;21.228;2022-12-18T05:31:42;59.60;;;14.75;;
52067;SDS011;60237;52.338;21.228;2022-12-18T05:34:10;51.90;;;13.95;;
52067;SDS011;60237;52.338;21.228;2022-12-18T05:36:36;53.15;;;13.82;;
52067;SDS011;60237;52.338;21.228;2022-12-18T05:39:03;55.65;;;14.45;;
52067;SDS011;60237;52.338;21.228;2022-12-18T05:41:31;47.47;;;14.68;;
52067;SDS011;60237;52.338;21.228;2022-12-18T05:43:57;44.28;;;14.10;;
52067;SDS011;60237;52.338;21.228;2022-12-18T05:46:24;77.85;;;16.73;;
52067;SDS011;60237;52.338;21.228;2022-12-18T05:48:50;57.13;;;15.32;;
52067;SDS011;60237;52.338;21.228;2022-12-18T05:51:18;49.08;;;13.25;;
52067;SDS011;60237;52.338;21.228;2022-12-18T05:53:45;56.95;;;14.70;;
52067;SDS011;60237;52.338;21.228;2022-12-18T05:56:13;54.17;;;13.73;;
52067;SDS011;60237;52.338;21.228;2022-12-18T05:58:41;57.88;;;14.55;;
52067;SDS011;60237;52.338;21.228;2022-12-18T06:01:12;52.15;;;14.00;;
52067;SDS011;60237;52.338;21.228;2022-12-18T06:03:39;52.83;;;13.77;;
52067;SDS011;60237;52.338;21.228;2022-12-18T06:06:16;45.25;;;13.95;;
52067;SDS011;60237;52.338;21.228;2022-12-18T06:08:43;55.03;;;14.95;;
52067;SDS011;60237;52.338;21.228;2022-12-18T06:11:12;62.78;;;15.25;;
52067;SDS011;60237;52.338;21.228;2022-12-18T06:13:39;79.32;;;16.05;;
52067;SDS011;60237;52.338;21.228;2022-12-18T06:16:06;53.05;;;14.73;;
52067;SDS011;60237;52.338;21.228;2022-12-18T06:18:33;43.35;;;13.60;;
52067;SDS011;60237;52.338;21.228;2022-12-18T06:21:00;56.70;;;14.27;;
52067;SDS011;60237;52.338;21.228;2022-12-18T06:23:26;66.03;;;16.77;;
52067;SDS011;60237;52.338;21.228;2022-12-18T06:25:53;62.95;;;15.52;;
52067;SDS011;60237;52.338;21.228;2022-12-18T06:28:20;78.97;;;19.00;;
52067;SDS011;60237;52.338;21.228;2022-12-18T06:30:47;66.72;;;15.98;;
52067;SDS011;60237;52.338;21.228;2022-12-18T06:33:14;56.55;;;15.00;;
52067;SDS011;60237;52.338;21.228;2022-12-18T06:35:41;62.00;;;17.75;;
52067;SDS011;60237;52.338;21.228;2022-12-18T06:38:07;54.88;;;16.63;;
52067;SDS011;60237;52.338;21.228;2022-12-18T06:40:34;65.18;;;16.42;;
52067;SDS011;60237;52.338;21.228;2022-12-18T06:43:02;61.47;;;16.75;;
52067;SDS011;60237;52.338;21.228;2022-12-18T06:45:29;57.38;;;14.98;;
52067;SDS011;60237;52.338;21.228;2022-12-18T06:47:55;51.97;;;16.20;;
52067;SDS011;60237;52.338;21.228;2022-12-18T06:50:22;68.65;;;17.45;;
52067;SDS011;60237;52.338;21.228;2022-12-18T06:52:49;70.90;;;19.17;;
52067;SDS011;60237;52.338;21.228;2022-12-18T06:55:15;88.32;;;20.15;;
52067;SDS011;60237;52.338;21.228;2022-12-18T06:57:42;72.25;;;20.35;;
52067;SDS011;60237;52.338;21.228;2022-12-18T07:00:08;55.88;;;18.52;;
52067;SDS011;60237;52.338;21.228;2022-12-18T07:02:35;63.58;;;18.40;;
52067;SDS011;60237;52.338;21.228;2022-12-18T07:05:02;74.88;;;19.33;;
52067;SDS011;60237;52.338;21.228;2022-12-18T07:07:36;59.28;;;15.98;;
52067;SDS011;60237;52.338;21.228;2022-12-18T07:10:02;52.60;;;15.40;;
52067;SDS011;60237;52.338;21.228;2022-12-18T07:12:29;84.43;;;22.77;;
52067;SDS011;60237;52.338;21.228;2022-12-18T07:14:55;77.30;;;24.15;;
52067;SDS011;60237;52.338;21.228;2022-12-18T07:17:22;79.53;;;22.13;;
52067;SDS011;60237;52.338;21.228;2022-12-18T07:19:48;74.50;;;21.05;;
52067;SDS011;60237;52.338;21.228;2022-12-18T07:22:15;75.00;;;22.25;;
52067;SDS011;60237;52.338;21.228;2022-12-18T07:24:41;73.93;;;21.45;;
52067;SDS011;60237;52.338;21.228;2022-12-18T07:27:08;89.70;;;25.27;;
52067;SDS011;60237;52.338;21.228;2022-12-18T07:29:35;70.68;;;18.20;;
52067;SDS011;60237;52.338;21.228;2022-12-18T07:32:03;50.25;;;16.33;;
52067;SDS011;60237;52.338;21.228;2022-12-18T07:34:29;69.78;;;16.85;;
52067;SDS011;60237;52.338;21.228;2022-12-18T07:36:56;61.17;;;17.52;;
52067;SDS011;60237;52.338;21.228;2022-12-18T07:39:22;54.45;;;16.48;;
52067;SDS011;60237;52.338;21.228;2022-12-18T07:41:49;69.03;;;17.60;;
52067;SDS011;60237;52.338;21.228;2022-12-18T07:44:38;58.03;;;17.15;;
52067;SDS011;60237;52.338;21.228;2022-12-18T07:47:05;54.83;;;16.67;;
52067;SDS011;60237;52.338;21.228;2022-12-18T07:49:37;60.92;;;16.77;;
52067;SDS011;60237;52.338;21.228;2022-12-18T07:52:03;63.95;;;17.45;;
52067;SDS011;60237;52.338;21.228;2022-12-18T07:54:30;73.13;;;17.83;;
52067;SDS011;60237;52.338;21.228;2022-12-18T07:56:56;64.13;;;18.38;;
52067;SDS011;60237;52.338;21.228;2022-12-18T07:59:23;69.88;;;19.05;;
52067;SDS011;60237;52.338;21.228;2022-12-18T08:01:49;67.20;;;18.02;;
52067;SDS011;60237;52.338;21.228;2022-12-18T08:04:16;70.22;;;17.38;;
52067;SDS011;60237;52.338;21.228;2022-12-18T08:06:43;66.70;;;17.70;;
52067;SDS011;60237;52.338;21.228;2022-12-18T08:09:13;64.50;;;17.65;;
52067;SDS011;60237;52.338;21.228;2022-12-18T08:11:40;54.53;;;17.23;;
52067;SDS011;60237;52.338;21.228;2022-12-18T08:14:06;70.40;;;19.55;;
52067;SDS011;60237;52.338;21.228;2022-12-18T08:16:33;101.72;;;30.15;;
52067;SDS011;60237;52.338;21.228;2022-12-18T08:19:00;110.05;;;34.65;;
52067;SDS011;60237;52.338;21.228;2022-12-18T08:21:27;119.95;;;35.78;;
52067;SDS011;60237;52.338;21.228;2022-12-18T08:23:54;102.57;;;28.00;;
52067;SDS011;60237;52.338;21.228;2022-12-18T08:26:21;68.38;;;21.65;;
52067;SDS011;60237;52.338;21.228;2022-12-18T08:28:49;86.97;;;21.88;;
52067;SDS011;60237;52.338;21.228;2022-12-18T08:31:16;73.70;;;19.45;;
52067;SDS011;60237;52.338;21.228;2022-12-18T08:33:42;70.13;;;18.17;;
52067;SDS011;60237;52.338;21.228;2022-12-18T08:36:09;59.13;;;17.65;;
52067;SDS011;60237;52.338;21.228;2022-12-18T08:38:36;82.72;;;21.23;;
52067;SDS011;60237;52.338;21.228;2022-12-18T08:41:06;71.85;;;20.95;;
52067;SDS011;60237;52.338;21.228;2022-12-18T08:43:33;66.60;;;20.52;;
52067;SDS011;60237;52.338;21.228;2022-12-18T08:46:19;84.03;;;24.13;;
52067;SDS011;60237;52.338;21.228;2022-12-18T08:48:46;97.28;;;24.73;;
52067;SDS011;60237;52.338;21.228;2022-12-18T08:51:12;81.65;;;25.48;;
52067;SDS011;60237;52.338;21.228;2022-12-18T08:53:39;64.90;;;21.02;;
52067;SDS011;60237;52.338;21.228;2022-12-18T08:56:07;76.05;;;21.15;;
52067;SDS011;60237;52.338;21.228;2022-12-18T08:58:33;96.90;;;26.40;;
52067;SDS011;60237;52.338;21.228;2022-12-18T09:01:00;78.25;;;25.13;;
52067;SDS011;60237;52.338;21.228;2022-12-18T09:03:28;71.65;;;23.83;;
52067;SDS011;60237;52.338;21.228;2022-12-18T09:05:54;86.88;;;26.88;;
52067;SDS011;60237;52.338;21.228;2022-12-18T09:08:21;84.22;;;24.25;;
52067;SDS011;60237;52.338;21.228;2022-12-18T09:10:48;96.38;;;25.50;;
52067;SDS011;60237;52.338;21.228;2022-12-18T09:13:15;90.15;;;24.67;;
52067;SDS011;60237;52.338;21.228;2022-12-18T09:15:49;252.00;;;40.13;;
52067;SDS011;60237;52.338;21.228;2022-12-18T09:18:16;84.63;;;25.27;;
52067;SDS011;60237;52.338;21.228;2022-12-18T09:20:43;99.35;;;26.75;;
52067;SDS011;60237;52.338;21.228;2022-12-18T09:23:10;101.00;;;30.60;;
52067;SDS011;60237;52.338;21.228;2022-12-18T09:25:37;102.93;;;30.67;;
52067;SDS011;60237;52.338;21.228;2022-12-18T09:28:11;92.13;;;28.98;;
52067;SDS011;60237;52.338;21.228;2022-12-18T09:30:42;102.47;;;31.13;;
52067;SDS011;60237;52.338;21.228;2022-12-18T09:33:08;104.13;;;29.58;;
52067;SDS011;60237;52.338;21.228;2022-12-18T09:35:36;113.30;;;30.55;;
52067;SDS011;60237;52.338;21.228;2022-12-18T09:38:02;95.38;;;27.80;;
52067;SDS011;60237;52.338;21.228;2022-12-18T09:40:32;110.85;;;30.33;;
52067;SDS011;60237;52.338;21.228;2022-12-18T09:43:00;106.03;;;29.80;;
52067;SDS011;60237;52.338;21.228;2022-12-18T09:45:30;100.75;;;30.23;;
52067;SDS011;60237;52.338;21.228;2022-12-18T09:48:00;108.15;;;31.65;;
52067;SDS011;60237;52.338;21.228;2022-12-18T09:50:35;115.68;;;31.80;;
52067;SDS011;60237;52.338;21.228;2022-12-18T09:53:05;104.97;;;30.20;;
52067;SDS011;60237;52.338;21.228;2022-12-18T09:55:34;117.10;;;31.90;;
52067;SDS011;60237;52.338;21.228;2022-12-18T09:58:07;109.80;;;32.08;;
52067;SDS011;60237;52.338;21.228;2022-12-18T10:00:38;98.60;;;31.95;;
52067;SDS011;60237;52.338;21.228;2022-12-18T10:03:11;103.57;;;32.45;;
52067;SDS011;60237;52.338;21.228;2022-12-18T10:08:19;115.85;;;33.20;;
52067;SDS011;60237;52.338;21.228;2022-12-18T10:10:47;116.78;;;36.33;;
52067;SDS011;60237;52.338;21.228;2022-12-18T10:13:28;125.72;;;33.80;;
52067;SDS011;60237;52.338;21.228;2022-12-18T10:21:18;118.97;;;33.58;;
52067;SDS011;60237;52.338;21.228;2022-12-18T10:24:10;128.80;;;33.25;;
52067;SDS011;60237;52.338;21.228;2022-12-18T10:26:35;114.60;;;33.10;;
52067;SDS011;60237;52.338;21.228;2022-12-18T10:29:03;121.28;;;33.22;;
52067;SDS011;60237;52.338;21.228;2022-12-18T10:31:31;123.93;;;35.67;;
52067;SDS011;60237;52.338;21.228;2022-12-18T10:33:58;110.97;;;36.40;;
52067;SDS011;60237;52.338;21.228;2022-12-18T10:36:24;116.30;;;35.50;;
52067;SDS011;60237;52.338;21.228;2022-12-18T10:38:51;119.30;;;33.78;;
52067;SDS011;60237;52.338;21.228;2022-12-18T10:43:47;125.63;;;32.50;;
52067;SDS011;60237;52.338;21.228;2022-12-18T10:46:14;107.53;;;32.00;;
52067;SDS011;60237;52.338;21.228;2022-12-18T10:51:25;113.93;;;32.80;;
52067;SDS011;60237;52.338;21.228;2022-12-18T10:53:57;108.38;;;34.28;;
52067;SDS011;60237;52.338;21.228;2022-12-18T10:56:27;107.95;;;32.72;;
52067;SDS011;60237;52.338;21.228;2022-12-18T10:58:58;111.13;;;31.80;;
52067;SDS011;60237;52.338;21.228;2022-12-18T11:01:25;117.47;;;30.63;;
52067;SDS011;60237;52.338;21.228;2022-12-18T11:06:25;106.45;;;29.23;;
52067;SDS011;60237;52.338;21.228;2022-12-18T11:09:05;98.07;;;30.20;;
52067;SDS011;60237;52.338;21.228;2022-12-18T11:11:39;96.78;;;29.45;;
52067;SDS011;60237;52.338;21.228;2022-12-18T11:14:17;93.22;;;29.52;;
52067;SDS011;60237;52.338;21.228;2022-12-18T11:16:45;93.88;;;27.25;;
52067;SDS011;60237;52.338;21.228;2022-12-18T11:19:33;132.70;;;31.15;;
52067;SDS011;60237;52.338;21.228;2022-12-18T11:22:01;85.85;;;27.65;;
52067;SDS011;60237;52.338;21.228;2022-12-18T11:26:55;102.22;;;29.70;;
52067;SDS011;60237;52.338;21.228;2022-12-18T11:29:38;97.57;;;29.92;;
52067;SDS011;60237;52.338;21.228;2022-12-18T11:34:41;109.97;;;30.00;;
52067;SDS011;60237;52.338;21.228;2022-12-18T11:37:09;90.63;;;28.20;;
52067;SDS011;60237;52.338;21.228;2022-12-18T11:47:36;81.35;;;25.23;;
52067;SDS011;60237;52.338;21.228;2022-12-18T11:50:08;87.03;;;25.98;;
52067;SDS011;60237;52.338;21.228;2022-12-18T11:52:38;96.80;;;28.33;;
52067;SDS011;60237;52.338;21.228;2022-12-18T11:55:21;93.80;;;28.77;;
52067;SDS011;60237;52.338;21.228;2022-12-18T11:57:57;83.53;;;26.15;;
52067;SDS011;60237;52.338;21.228;2022-12-18T12:00:28;98.72;;;33.05;;
52067;SDS011;60237;52.338;21.228;2022-12-18T12:07:56;95.07;;;31.00;;
52067;SDS011;60237;52.338;21.228;2022-12-18T12:15:32;113.28;;;31.67;;
52067;SDS011;60237;52.338;21.228;2022-12-18T12:18:08;108.13;;;30.20;;
52067;SDS011;60237;52.338;21.228;2022-12-18T12:23:12;95.78;;;30.55;;
52067;SDS011;60237;52.338;21.228;2022-12-18T12:25:43;132.65;;;42.28;;
52067;SDS011;60237;52.338;21.228;2022-12-18T12:28:18;97.78;;;30.17;;
52067;SDS011;60237;52.338;21.228;2022-12-18T12:36:31;111.55;;;33.75;;
52067;SDS011;60237;52.338;21.228;2022-12-18T12:39:05;101.07;;;31.98;;
52067;SDS011;60237;52.338;21.228;2022-12-18T12:41:32;114.93;;;36.50;;
52067;SDS011;60237;52.338;21.228;2022-12-18T12:44:20;99.20;;;32.60;;
52067;SDS011;60237;52.338;21.228;2022-12-18T12:46:48;116.35;;;36.20;;
52067;SDS011;60237;52.338;21.228;2022-12-18T12:49:16;92.63;;;32.38;;
52067;SDS011;60237;52.338;21.228;2022-12-18T12:51:45;105.57;;;33.83;;
52067;SDS011;60237;52.338;21.228;2022-12-18T12:54:16;120.25;;;34.13;;
52067;SDS011;60237;52.338;21.228;2022-12-18T13:02:14;90.13;;;29.90;;
52067;SDS011;60237;52.338;21.228;2022-12-18T13:04:47;100.40;;;30.50;;
52067;SDS011;60237;52.338;21.228;2022-12-18T13:07:20;88.43;;;27.20;;
52067;SDS011;60237;52.338;21.228;2022-12-18T13:12:36;84.07;;;29.95;;
52067;SDS011;60237;52.338;21.228;2022-12-18T13:15:22;90.13;;;31.05;;
52067;SDS011;60237;52.338;21.228;2022-12-18T13:18:32;92.88;;;31.58;;
52067;SDS011;60237;52.338;21.228;2022-12-18T13:20:41;122.97;;;34.60;;
52067;SDS011;60237;52.338;21.228;2022-12-18T13:25:56;119.97;;;34.85;;
52067;SDS011;60237;52.338;21.228;2022-12-18T13:30:59;93.88;;;32.25;;
52067;SDS011;60237;52.338;21.228;2022-12-18T13:36:09;85.85;;;29.65;;
52067;SDS011;60237;52.338;21.228;2022-12-18T13:38:39;109.45;;;33.28;;
52067;SDS011;60237;52.338;21.228;2022-12-18T13:43:35;110.03;;;34.58;;
52067;SDS011;60237;52.338;21.228;2022-12-18T13:48:35;103.70;;;33.58;;
52067;SDS011;60237;52.338;21.228;2022-12-18T13:51:04;110.50;;;35.92;;
52067;SDS011;60237;52.338;21.228;2022-12-18T13:53:39;114.47;;;35.95;;
52067;SDS011;60237;52.338;21.228;2022-12-18T13:56:08;112.70;;;37.20;;
52067;SDS011;60237;52.338;21.228;2022-12-18T13:58:35;328.13;;;72.60;;
52067;SDS011;60237;52.338;21.228;2022-12-18T14:01:01;129.38;;;40.08;;
52067;SDS011;60237;52.338;21.228;2022-12-18T14:03:31;114.30;;;34.72;;
52067;SDS011;60237;52.338;21.228;2022-12-18T14:06:15;131.05;;;38.88;;
52067;SDS011;60237;52.338;21.228;2022-12-18T14:08:43;135.18;;;41.60;;
52067;SDS011;60237;52.338;21.228;2022-12-18T14:11:17;125.45;;;37.92;;
52067;SDS011;60237;52.338;21.228;2022-12-18T14:13:46;124.20;;;38.53;;
52067;SDS011;60237;52.338;21.228;2022-12-18T14:16:14;115.65;;;37.42;;
52067;SDS011;60237;52.338;21.228;2022-12-18T14:18:54;126.35;;;37.53;;
52067;SDS011;60237;52.338;21.228;2022-12-18T14:21:29;115.45;;;37.78;;
52067;SDS011;60237;52.338;21.228;2022-12-18T14:26:43;154.60;;;41.13;;
52067;SDS011;60237;52.338;21.228;2022-12-18T14:29:34;129.30;;;38.67;;
52067;SDS011;60237;52.338;21.228;2022-12-18T14:32:04;112.72;;;38.92;;
52067;SDS011;60237;52.338;21.228;2022-12-18T14:34:31;139.40;;;43.40;;
52067;SDS011;60237;52.338;21.228;2022-12-18T14:36:57;119.75;;;37.08;;
52067;SDS011;60237;52.338;21.228;2022-12-18T14:39:23;129.25;;;39.08;;
52067;SDS011;60237;52.338;21.228;2022-12-18T14:41:52;155.88;;;44.53;;
52067;SDS011;60237;52.338;21.228;2022-12-18T14:44:19;141.77;;;44.22;;
52067;SDS011;60237;52.338;21.228;2022-12-18T14:46:48;140.77;;;42.45;;
52067;SDS011;60237;52.338;21.228;2022-12-18T14:51:48;135.32;;;42.38;;
52067;SDS011;60237;52.338;21.228;2022-12-18T14:54:16;154.80;;;45.75;;
52067;SDS011;60237;52.338;21.228;2022-12-18T14:56:44;142.77;;;41.33;;
52067;SDS011;60237;52.338;21.228;2022-12-18T14:59:19;132.75;;;41.40;;
52067;SDS011;60237;52.338;21.228;2022-12-18T15:04:33;124.30;;;40.95;;
52067;SDS011;60237;52.338;21.228;2022-12-18T15:07:23;126.40;;;37.67;;
52067;SDS011;60237;52.338;21.228;2022-12-18T15:12:33;137.35;;;41.65;;
52067;SDS011;60237;52.338;21.228;2022-12-18T15:15:00;135.23;;;41.80;;
52067;SDS011;60237;52.338;21.228;2022-12-18T15:17:27;143.63;;;41.72;;
52067;SDS011;60237;52.338;21.228;2022-12-18T15:19:58;136.95;;;44.42;;
52067;SDS011;60237;52.338;21.228;2022-12-18T15:24:51;148.23;;;44.92;;
52067;SDS011;60237;52.338;21.228;2022-12-18T15:32:36;138.00;;;41.17;;
52067;SDS011;60237;52.338;21.228;2022-12-18T15:35:22;118.03;;;36.00;;
52067;SDS011;60237;52.338;21.228;2022-12-18T15:37:49;110.20;;;36.03;;
52067;SDS011;60237;52.338;21.228;2022-12-18T15:40:23;144.75;;;37.92;;
52067;SDS011;60237;52.338;21.228;2022-12-18T15:42:51;134.10;;;40.15;;
52067;SDS011;60237;52.338;21.228;2022-12-18T15:45:37;120.18;;;38.45;;
52067;SDS011;60237;52.338;21.228;2022-12-18T15:48:22;140.75;;;42.65;;
52067;SDS011;60237;52.338;21.228;2022-12-18T15:50:52;123.68;;;39.30;;
52067;SDS011;60237;52.338;21.228;2022-12-18T15:53:19;110.20;;;36.67;;
52067;SDS011;60237;52.338;21.228;2022-12-18T15:55:46;127.05;;;38.22;;
52067;SDS011;60237;52.338;21.228;2022-12-18T15:58:31;135.35;;;40.75;;
52067;SDS011;60237;52.338;21.228;2022-12-18T16:00:59;128.77;;;41.58;;
52067;SDS011;60237;52.338;21.228;2022-12-18T16:03:26;122.85;;;39.53;;